sensor_id;sensor_type;location;lat;lon;timestamp;P1;durP1;ratioP1;P2;durP2;ratioP2
64868;SDS011;51349;52.424;10.840;2022-08-07T00:01:55;2.85;;;2.65;;
64868;SDS011;51349;52.424;10.840;2022-08-07T00:06:56;2.47;;;2.38;;
64868;SDS011;51349;52.424;10.840;2022-08-07T00:11:56;3.05;;;2.80;;
64868;SDS011;51349;52.424;10.840;2022-08-07T00:16:58;3.00;;;2.80;;
64868;SDS011;51349;52.424;10.840;2022-08-07T00:22:00;3.25;;;2.95;;
64868;SDS011;51349;52.424;10.840;2022-08-07T00:27:00;3.72;;;2.83;;
64868;SDS011;51349;52.424;10.840;2022-08-07T00:32:01;3.28;;;3.08;;
64868;SDS011;51349;52.424;10.840;2022-08-07T00:37:02;4.00;;;3.60;;
64868;SDS011;51349;52.424;10.840;2022-08-07T00:42:03;3.67;;;2.83;;
64868;SDS011;51349;52.424;10.840;2022-08-07T00:47:04;3.28;;;3.08;;
64868;SDS011;51349;52.424;10.840;2022-08-07T00:52:06;3.75;;;3.03;;
64868;SDS011;51349;52.424;10.840;2022-08-07T00:57:07;3.55;;;3.25;;
64868;SDS011;51349;52.424;10.840;2022-08-07T01:02:09;3.05;;;2.85;;
64868;SDS011;51349;52.424;10.840;2022-08-07T01:07:11;3.97;;;3.67;;
64868;SDS011;51349;52.424;10.840;2022-08-07T01:12:15;3.70;;;3.40;;
64868;SDS011;51349;52.424;10.840;2022-08-07T01:17:16;3.97;;;3.60;;
64868;SDS011;51349;52.424;10.840;2022-08-07T01:22:17;4.07;;;3.53;;
64868;SDS011;51349;52.424;10.840;2022-08-07T01:27:18;3.75;;;3.38;;
64868;SDS011;51349;52.424;10.840;2022-08-07T01:32:19;3.90;;;3.50;;
64868;SDS011;51349;52.424;10.840;2022-08-07T01:37:19;4.55;;;3.45;;
64868;SDS011;51349;52.424;10.840;2022-08-07T01:42:20;3.42;;;3.15;;
64868;SDS011;51349;52.424;10.840;2022-08-07T01:47:21;4.00;;;3.70;;
64868;SDS011;51349;52.424;10.840;2022-08-07T01:52:22;4.45;;;4.05;;
64868;SDS011;51349;52.424;10.840;2022-08-07T01:57:27;4.13;;;3.70;;
64868;SDS011;51349;52.424;10.840;2022-08-07T02:02:34;4.00;;;3.70;;
64868;SDS011;51349;52.424;10.840;2022-08-07T02:07:52;4.38;;;3.95;;
64868;SDS011;51349;52.424;10.840;2022-08-07T02:12:54;4.40;;;4.10;;
64868;SDS011;51349;52.424;10.840;2022-08-07T02:17:58;5.47;;;3.83;;
64868;SDS011;51349;52.424;10.840;2022-08-07T02:23:02;5.45;;;4.03;;
64868;SDS011;51349;52.424;10.840;2022-08-07T02:28:05;4.50;;;4.03;;
64868;SDS011;51349;52.424;10.840;2022-08-07T02:33:07;4.30;;;3.90;;
64868;SDS011;51349;52.424;10.840;2022-08-07T02:38:09;4.13;;;3.83;;
64868;SDS011;51349;52.424;10.840;2022-08-07T02:43:12;4.72;;;4.22;;
64868;SDS011;51349;52.424;10.840;2022-08-07T02:48:14;3.95;;;3.65;;
64868;SDS011;51349;52.424;10.840;2022-08-07T02:53:17;4.07;;;3.77;;
64868;SDS011;51349;52.424;10.840;2022-08-07T02:58:23;4.30;;;3.90;;
64868;SDS011;51349;52.424;10.840;2022-08-07T03:03:26;4.90;;;4.50;;
64868;SDS011;51349;52.424;10.840;2022-08-07T03:08:28;4.27;;;3.87;;
64868;SDS011;51349;52.424;10.840;2022-08-07T03:13:29;4.73;;;4.03;;
64868;SDS011;51349;52.424;10.840;2022-08-07T03:18:30;5.22;;;4.40;;
64868;SDS011;51349;52.424;10.840;2022-08-07T03:23:31;4.50;;;4.10;;
64868;SDS011;51349;52.424;10.840;2022-08-07T03:28:35;4.60;;;4.20;;
64868;SDS011;51349;52.424;10.840;2022-08-07T03:33:38;4.57;;;4.17;;
64868;SDS011;51349;52.424;10.840;2022-08-07T03:38:40;4.20;;;3.90;;
64868;SDS011;51349;52.424;10.840;2022-08-07T03:43:41;4.70;;;4.30;;
64868;SDS011;51349;52.424;10.840;2022-08-07T03:48:42;4.23;;;3.83;;
64868;SDS011;51349;52.424;10.840;2022-08-07T03:53:43;4.60;;;4.20;;
64868;SDS011;51349;52.424;10.840;2022-08-07T03:58:44;4.70;;;4.30;;
64868;SDS011;51349;52.424;10.840;2022-08-07T04:03:45;4.53;;;4.17;;
64868;SDS011;51349;52.424;10.840;2022-08-07T04:08:46;6.23;;;4.37;;
64868;SDS011;51349;52.424;10.840;2022-08-07T04:13:47;4.57;;;4.17;;
64868;SDS011;51349;52.424;10.840;2022-08-07T04:18:49;4.10;;;3.80;;
64868;SDS011;51349;52.424;10.840;2022-08-07T04:23:50;4.93;;;4.50;;
64868;SDS011;51349;52.424;10.840;2022-08-07T04:28:52;4.33;;;4.03;;
64868;SDS011;51349;52.424;10.840;2022-08-07T04:33:53;4.70;;;4.30;;
64868;SDS011;51349;52.424;10.840;2022-08-07T04:38:54;4.33;;;4.03;;
64868;SDS011;51349;52.424;10.840;2022-08-07T04:43:54;4.77;;;4.37;;
64868;SDS011;51349;52.424;10.840;2022-08-07T04:54:15;4.50;;;4.13;;
64868;SDS011;51349;52.424;10.840;2022-08-07T04:59:20;4.30;;;3.90;;
64868;SDS011;51349;52.424;10.840;2022-08-07T05:15:15;5.60;;;5.17;;
64868;SDS011;51349;52.424;10.840;2022-08-07T05:20:26;8.40;;;7.60;;
64868;SDS011;51349;52.424;10.840;2022-08-07T05:25:32;7.77;;;5.73;;
64868;SDS011;51349;52.424;10.840;2022-08-07T05:30:33;5.63;;;5.23;;
64868;SDS011;51349;52.424;10.840;2022-08-07T05:35:36;6.23;;;5.63;;
64868;SDS011;51349;52.424;10.840;2022-08-07T05:40:37;6.53;;;5.83;;
64868;SDS011;51349;52.424;10.840;2022-08-07T05:45:39;8.13;;;6.10;;
64868;SDS011;51349;52.424;10.840;2022-08-07T05:50:41;6.30;;;5.70;;
64868;SDS011;51349;52.424;10.840;2022-08-07T05:55:43;8.37;;;6.33;;
64868;SDS011;51349;52.424;10.840;2022-08-07T06:00:45;8.77;;;6.70;;
64868;SDS011;51349;52.424;10.840;2022-08-07T06:05:46;8.10;;;7.30;;
64868;SDS011;51349;52.424;10.840;2022-08-07T06:10:48;8.43;;;7.20;;
64868;SDS011;51349;52.424;10.840;2022-08-07T06:15:49;6.80;;;6.20;;
64868;SDS011;51349;52.424;10.840;2022-08-07T06:20:50;7.00;;;6.30;;
64868;SDS011;51349;52.424;10.840;2022-08-07T06:25:52;7.47;;;6.47;;
64868;SDS011;51349;52.424;10.840;2022-08-07T06:30:54;8.17;;;6.70;;
64868;SDS011;51349;52.424;10.840;2022-08-07T06:35:55;7.80;;;6.70;;
64868;SDS011;51349;52.424;10.840;2022-08-07T06:40:56;9.07;;;6.50;;
64868;SDS011;51349;52.424;10.840;2022-08-07T06:45:58;6.80;;;6.20;;
64868;SDS011;51349;52.424;10.840;2022-08-07T06:50:59;8.32;;;6.18;;
64868;SDS011;51349;52.424;10.840;2022-08-07T06:56:03;9.57;;;5.50;;
64868;SDS011;51349;52.424;10.840;2022-08-07T07:01:05;6.60;;;5.63;;
64868;SDS011;51349;52.424;10.840;2022-08-07T07:06:08;10.43;;;6.00;;
64868;SDS011;51349;52.424;10.840;2022-08-07T07:11:09;5.78;;;5.28;;
64868;SDS011;51349;52.424;10.840;2022-08-07T07:16:11;6.00;;;5.30;;
64868;SDS011;51349;52.424;10.840;2022-08-07T07:21:18;5.85;;;5.25;;
64868;SDS011;51349;52.424;10.840;2022-08-07T07:26:22;5.63;;;5.13;;
64868;SDS011;51349;52.424;10.840;2022-08-07T07:31:26;5.53;;;5.03;;
64868;SDS011;51349;52.424;10.840;2022-08-07T07:36:27;6.75;;;5.60;;
64868;SDS011;51349;52.424;10.840;2022-08-07T07:41:28;7.70;;;5.90;;
64868;SDS011;51349;52.424;10.840;2022-08-07T07:46:33;5.93;;;5.20;;
64868;SDS011;51349;52.424;10.840;2022-08-07T07:51:37;6.10;;;4.53;;
64868;SDS011;51349;52.424;10.840;2022-08-07T07:56:38;5.57;;;4.65;;
64868;SDS011;51349;52.424;10.840;2022-08-07T08:01:41;4.55;;;4.13;;
64868;SDS011;51349;52.424;10.840;2022-08-07T08:06:44;4.90;;;4.10;;
64868;SDS011;51349;52.424;10.840;2022-08-07T08:11:46;4.40;;;3.92;;
64868;SDS011;51349;52.424;10.840;2022-08-07T08:16:47;4.40;;;4.00;;
64868;SDS011;51349;52.424;10.840;2022-08-07T08:21:50;3.90;;;3.60;;
64868;SDS011;51349;52.424;10.840;2022-08-07T08:27:10;4.07;;;3.78;;
64868;SDS011;51349;52.424;10.840;2022-08-07T08:32:16;3.70;;;3.38;;
64868;SDS011;51349;52.424;10.840;2022-08-07T08:37:20;3.78;;;3.40;;
64868;SDS011;51349;52.424;10.840;2022-08-07T08:47:59;2.72;;;2.53;;
64868;SDS011;51349;52.424;10.840;2022-08-07T08:53:29;1.98;;;1.88;;
64868;SDS011;51349;52.424;10.840;2022-08-07T09:04:06;1.95;;;1.80;;
64868;SDS011;51349;52.424;10.840;2022-08-07T09:15:00;1.33;;;1.30;;
64868;SDS011;51349;52.424;10.840;2022-08-07T09:25:38;1.10;;;1.08;;
64868;SDS011;51349;52.424;10.840;2022-08-07T09:31:04;1.33;;;1.23;;
64868;SDS011;51349;52.424;10.840;2022-08-07T09:36:17;2.08;;;1.30;;
64868;SDS011;51349;52.424;10.840;2022-08-07T09:41:29;1.80;;;1.70;;
64868;SDS011;51349;52.424;10.840;2022-08-07T10:07:17;1.40;;;1.30;;
64868;SDS011;51349;52.424;10.840;2022-08-07T10:45:00;1.80;;;1.70;;
64868;SDS011;51349;52.424;10.840;2022-08-07T10:55:28;1.33;;;1.33;;
64868;SDS011;51349;52.424;10.840;2022-08-07T11:00:54;1.65;;;1.55;;
64868;SDS011;51349;52.424;10.840;2022-08-07T11:06:10;1.90;;;1.80;;
64868;SDS011;51349;52.424;10.840;2022-08-07T11:11:23;1.50;;;1.40;;
64868;SDS011;51349;52.424;10.840;2022-08-07T11:16:53;1.38;;;1.30;;
64868;SDS011;51349;52.424;10.840;2022-08-07T12:05:01;1.20;;;1.10;;
64868;SDS011;51349;52.424;10.840;2022-08-07T12:10:07;3.10;;;1.20;;
64868;SDS011;51349;52.424;10.840;2022-08-07T12:15:15;1.15;;;1.15;;
64868;SDS011;51349;52.424;10.840;2022-08-07T12:20:35;1.48;;;1.38;;
64868;SDS011;51349;52.424;10.840;2022-08-07T12:25:45;1.13;;;1.13;;
64868;SDS011;51349;52.424;10.840;2022-08-07T12:30:57;1.33;;;1.30;;
64868;SDS011;51349;52.424;10.840;2022-08-07T12:36:02;2.72;;;1.30;;
64868;SDS011;51349;52.424;10.840;2022-08-07T12:41:05;1.55;;;1.30;;
64868;SDS011;51349;52.424;10.840;2022-08-07T12:46:30;1.45;;;1.35;;
64868;SDS011;51349;52.424;10.840;2022-08-07T12:57:07;1.40;;;1.30;;
64868;SDS011;51349;52.424;10.840;2022-08-07T13:18:15;1.45;;;1.30;;
64868;SDS011;51349;52.424;10.840;2022-08-07T13:29:15;1.48;;;1.38;;
64868;SDS011;51349;52.424;10.840;2022-08-07T13:40:19;1.40;;;1.30;;
64868;SDS011;51349;52.424;10.840;2022-08-07T13:45:26;1.40;;;1.30;;
64868;SDS011;51349;52.424;10.840;2022-08-07T13:50:29;1.52;;;1.42;;
64868;SDS011;51349;52.424;10.840;2022-08-07T13:55:31;1.25;;;1.25;;
64868;SDS011;51349;52.424;10.840;2022-08-07T14:00:35;3.60;;;1.45;;
64868;SDS011;51349;52.424;10.840;2022-08-07T14:05:37;1.25;;;1.15;;
64868;SDS011;51349;52.424;10.840;2022-08-07T14:10:39;1.20;;;1.10;;
64868;SDS011;51349;52.424;10.840;2022-08-07T14:15:41;1.50;;;1.40;;
64868;SDS011;51349;52.424;10.840;2022-08-07T14:20:44;1.27;;;1.27;;
64868;SDS011;51349;52.424;10.840;2022-08-07T14:26:32;1.40;;;1.30;;
64868;SDS011;51349;52.424;10.840;2022-08-07T14:31:16;2.00;;;1.30;;
64868;SDS011;51349;52.424;10.840;2022-08-07T14:36:17;2.20;;;1.15;;
64868;SDS011;51349;52.424;10.840;2022-08-07T14:41:26;1.33;;;1.20;;
64868;SDS011;51349;52.424;10.840;2022-08-07T14:46:28;1.48;;;1.38;;
64868;SDS011;51349;52.424;10.840;2022-08-07T14:51:31;1.20;;;1.20;;
64868;SDS011;51349;52.424;10.840;2022-08-07T14:56:33;1.42;;;1.40;;
64868;SDS011;51349;52.424;10.840;2022-08-07T15:01:39;1.70;;;1.60;;
64868;SDS011;51349;52.424;10.840;2022-08-07T15:06:42;1.35;;;1.20;;
64868;SDS011;51349;52.424;10.840;2022-08-07T15:11:56;1.52;;;1.42;;
64868;SDS011;51349;52.424;10.840;2022-08-07T15:17:12;1.40;;;1.30;;
64868;SDS011;51349;52.424;10.840;2022-08-07T15:22:15;1.50;;;1.35;;
64868;SDS011;51349;52.424;10.840;2022-08-07T15:27:18;2.17;;;1.30;;
64868;SDS011;51349;52.424;10.840;2022-08-07T15:32:23;2.88;;;1.40;;
64868;SDS011;51349;52.424;10.840;2022-08-07T15:37:28;1.10;;;1.10;;
64868;SDS011;51349;52.424;10.840;2022-08-07T15:47:43;1.25;;;1.25;;
64868;SDS011;51349;52.424;10.840;2022-08-07T15:52:51;1.30;;;1.30;;
64868;SDS011;51349;52.424;10.840;2022-08-07T15:58:01;1.20;;;1.20;;
64868;SDS011;51349;52.424;10.840;2022-08-07T16:03:05;1.33;;;1.23;;
64868;SDS011;51349;52.424;10.840;2022-08-07T16:08:26;1.20;;;1.20;;
64868;SDS011;51349;52.424;10.840;2022-08-07T16:24:21;1.45;;;1.30;;
64868;SDS011;51349;52.424;10.840;2022-08-07T16:46:08;2.15;;;1.60;;
64868;SDS011;51349;52.424;10.840;2022-08-07T16:56:48;1.95;;;1.75;;
64868;SDS011;51349;52.424;10.840;2022-08-07T17:07:27;1.73;;;1.50;;
64868;SDS011;51349;52.424;10.840;2022-08-07T17:18:12;2.83;;;1.90;;
64868;SDS011;51349;52.424;10.840;2022-08-07T17:28:39;1.90;;;1.65;;
64868;SDS011;51349;52.424;10.840;2022-08-07T17:33:57;2.17;;;1.73;;
64868;SDS011;51349;52.424;10.840;2022-08-07T17:39:07;1.70;;;1.60;;
64868;SDS011;51349;52.424;10.840;2022-08-07T17:49:52;1.75;;;1.65;;
64868;SDS011;51349;52.424;10.840;2022-08-07T17:55:11;1.85;;;1.70;;
64868;SDS011;51349;52.424;10.840;2022-08-07T18:00:16;1.90;;;1.80;;
64868;SDS011;51349;52.424;10.840;2022-08-07T18:16:16;1.70;;;1.60;;
64868;SDS011;51349;52.424;10.840;2022-08-07T18:21:31;1.63;;;1.50;;
64868;SDS011;51349;52.424;10.840;2022-08-07T18:42:35;2.13;;;1.70;;
64868;SDS011;51349;52.424;10.840;2022-08-07T18:47:54;1.60;;;1.50;;
64868;SDS011;51349;52.424;10.840;2022-08-07T18:58:22;1.98;;;1.88;;
64868;SDS011;51349;52.424;10.840;2022-08-07T19:03:33;3.90;;;1.80;;
64868;SDS011;51349;52.424;10.840;2022-08-07T19:09:05;1.90;;;1.80;;
64868;SDS011;51349;52.424;10.840;2022-08-07T19:14:35;1.83;;;1.73;;
64868;SDS011;51349;52.424;10.840;2022-08-07T19:19:52;2.08;;;1.80;;
64868;SDS011;51349;52.424;10.840;2022-08-07T19:24:58;2.08;;;1.95;;
64868;SDS011;51349;52.424;10.840;2022-08-07T19:30:02;2.50;;;2.08;;
64868;SDS011;51349;52.424;10.840;2022-08-07T19:35:11;2.58;;;2.20;;
64868;SDS011;51349;52.424;10.840;2022-08-07T19:40:16;2.58;;;2.00;;
64868;SDS011;51349;52.424;10.840;2022-08-07T19:45:19;2.17;;;1.98;;
64868;SDS011;51349;52.424;10.840;2022-08-07T19:50:27;1.98;;;1.88;;
64868;SDS011;51349;52.424;10.840;2022-08-07T19:55:28;2.05;;;1.95;;
64868;SDS011;51349;52.424;10.840;2022-08-07T20:00:29;2.50;;;2.35;;
64868;SDS011;51349;52.424;10.840;2022-08-07T20:05:32;3.30;;;2.08;;
64868;SDS011;51349;52.424;10.840;2022-08-07T20:10:34;2.10;;;2.00;;
64868;SDS011;51349;52.424;10.840;2022-08-07T20:15:38;2.30;;;2.13;;
64868;SDS011;51349;52.424;10.840;2022-08-07T20:20:41;2.50;;;2.30;;
64868;SDS011;51349;52.424;10.840;2022-08-07T20:25:42;2.95;;;2.30;;
64868;SDS011;51349;52.424;10.840;2022-08-07T20:30:44;2.90;;;2.70;;
64868;SDS011;51349;52.424;10.840;2022-08-07T20:35:46;3.03;;;2.83;;
64868;SDS011;51349;52.424;10.840;2022-08-07T20:40:50;3.35;;;2.70;;
64868;SDS011;51349;52.424;10.840;2022-08-07T20:45:55;2.67;;;2.58;;
64868;SDS011;51349;52.424;10.840;2022-08-07T20:50:57;3.58;;;3.28;;
64868;SDS011;51349;52.424;10.840;2022-08-07T20:56:00;2.80;;;2.70;;
64868;SDS011;51349;52.424;10.840;2022-08-07T21:01:07;4.57;;;2.60;;
64868;SDS011;51349;52.424;10.840;2022-08-07T21:06:11;3.15;;;2.60;;
64868;SDS011;51349;52.424;10.840;2022-08-07T21:11:17;2.80;;;2.60;;
64868;SDS011;51349;52.424;10.840;2022-08-07T21:16:23;3.70;;;3.38;;
64868;SDS011;51349;52.424;10.840;2022-08-07T21:21:45;3.25;;;3.00;;
64868;SDS011;51349;52.424;10.840;2022-08-07T21:26:55;3.30;;;3.00;;
64868;SDS011;51349;52.424;10.840;2022-08-07T21:32:01;3.22;;;3.03;;
64868;SDS011;51349;52.424;10.840;2022-08-07T21:37:32;3.10;;;2.88;;
64868;SDS011;51349;52.424;10.840;2022-08-07T21:42:40;2.55;;;2.38;;
64868;SDS011;51349;52.424;10.840;2022-08-07T21:53:25;3.10;;;2.90;;
64868;SDS011;51349;52.424;10.840;2022-08-07T21:58:37;3.05;;;2.85;;
64868;SDS011;51349;52.424;10.840;2022-08-07T22:03:57;3.53;;;2.83;;
64868;SDS011;51349;52.424;10.840;2022-08-07T22:09:02;3.10;;;2.90;;
64868;SDS011;51349;52.424;10.840;2022-08-07T22:14:06;3.63;;;3.35;;
64868;SDS011;51349;52.424;10.840;2022-08-07T22:19:15;3.40;;;3.10;;
64868;SDS011;51349;52.424;10.840;2022-08-07T22:24:22;3.20;;;3.00;;
64868;SDS011;51349;52.424;10.840;2022-08-07T22:45:12;3.05;;;2.85;;
